sensor_id;sensor_type;location;lat;lon;timestamp;temperature;humidity
15819;DHT22;8010;53.986;12.106;2022-11-20T00:01:12;2.10;99.90
15819;DHT22;8010;53.986;12.106;2022-11-20T00:03:38;2.10;99.90
15819;DHT22;8010;53.986;12.106;2022-11-20T00:06:06;2.10;99.90
15819;DHT22;8010;53.986;12.106;2022-11-20T00:08:32;2.10;99.90
15819;DHT22;8010;53.986;12.106;2022-11-20T00:10:57;2.10;99.90
15819;DHT22;8010;53.986;12.106;2022-11-20T00:13:27;2.10;99.90
15819;DHT22;8010;53.986;12.106;2022-11-20T00:15:57;2.10;99.90
15819;DHT22;8010;53.986;12.106;2022-11-20T00:18:23;2.10;99.90
15819;DHT22;8010;53.986;12.106;2022-11-20T00:20:48;2.10;99.90
15819;DHT22;8010;53.986;12.106;2022-11-20T00:23:14;2.10;99.90
15819;DHT22;8010;53.986;12.106;2022-11-20T00:25:39;2.10;99.90
15819;DHT22;8010;53.986;12.106;2022-11-20T00:28:05;2.10;99.90
15819;DHT22;8010;53.986;12.106;2022-11-20T00:30:31;2.10;99.90
15819;DHT22;8010;53.986;12.106;2022-11-20T00:32:56;2.10;99.90
15819;DHT22;8010;53.986;12.106;2022-11-20T00:35:22;2.10;99.90
15819;DHT22;8010;53.986;12.106;2022-11-20T00:37:48;2.20;99.90
15819;DHT22;8010;53.986;12.106;2022-11-20T00:40:14;2.40;99.90
15819;DHT22;8010;53.986;12.106;2022-11-20T00:42:39;2.90;99.90
15819;DHT22;8010;53.986;12.106;2022-11-20T00:45:05;2.30;99.90
15819;DHT22;8010;53.986;12.106;2022-11-20T00:47:31;2.40;99.90
15819;DHT22;8010;53.986;12.106;2022-11-20T00:49:56;2.40;99.90
15819;DHT22;8010;53.986;12.106;2022-11-20T00:52:22;2.40;99.90
15819;DHT22;8010;53.986;12.106;2022-11-20T00:54:47;2.40;99.90
15819;DHT22;8010;53.986;12.106;2022-11-20T00:57:13;2.40;99.90
15819;DHT22;8010;53.986;12.106;2022-11-20T00:59:38;2.40;99.90
15819;DHT22;8010;53.986;12.106;2022-11-20T01:02:04;2.40;99.90
15819;DHT22;8010;53.986;12.106;2022-11-20T01:04:29;4.10;99.90
15819;DHT22;8010;53.986;12.106;2022-11-20T01:06:55;2.40;99.90
15819;DHT22;8010;53.986;12.106;2022-11-20T01:09:20;2.40;99.90
15819;DHT22;8010;53.986;12.106;2022-11-20T01:11:46;2.40;99.90
15819;DHT22;8010;53.986;12.106;2022-11-20T01:14:15;2.40;99.90
15819;DHT22;8010;53.986;12.106;2022-11-20T01:16:49;2.40;99.90
15819;DHT22;8010;53.986;12.106;2022-11-20T01:19:19;2.40;99.90
15819;DHT22;8010;53.986;12.106;2022-11-20T01:21:47;2.30;99.90
15819;DHT22;8010;53.986;12.106;2022-11-20T01:24:15;2.30;99.90
15819;DHT22;8010;53.986;12.106;2022-11-20T01:26:42;2.30;99.90
15819;DHT22;8010;53.986;12.106;2022-11-20T01:29:16;2.30;99.90
15819;DHT22;8010;53.986;12.106;2022-11-20T01:31:43;2.30;99.90
15819;DHT22;8010;53.986;12.106;2022-11-20T01:34:17;2.30;99.90
15819;DHT22;8010;53.986;12.106;2022-11-20T01:36:43;2.30;99.90
15819;DHT22;8010;53.986;12.106;2022-11-20T01:39:17;2.20;99.90
15819;DHT22;8010;53.986;12.106;2022-11-20T01:41:44;2.20;99.90
15819;DHT22;8010;53.986;12.106;2022-11-20T01:44:51;2.20;99.90
15819;DHT22;8010;53.986;12.106;2022-11-20T01:47:22;2.20;99.90
15819;DHT22;8010;53.986;12.106;2022-11-20T01:49:52;2.10;99.90
15819;DHT22;8010;53.986;12.106;2022-11-20T01:52:22;2.10;99.90
15819;DHT22;8010;53.986;12.106;2022-11-20T01:54:56;2.20;99.90
15819;DHT22;8010;53.986;12.106;2022-11-20T01:57:25;2.10;99.90
15819;DHT22;8010;53.986;12.106;2022-11-20T02:00:00;2.10;99.90
15819;DHT22;8010;53.986;12.106;2022-11-20T02:02:27;2.10;99.90
15819;DHT22;8010;53.986;12.106;2022-11-20T02:04:54;2.10;99.90
15819;DHT22;8010;53.986;12.106;2022-11-20T02:07:23;2.10;99.90
15819;DHT22;8010;53.986;12.106;2022-11-20T02:09:50;2.10;99.90
15819;DHT22;8010;53.986;12.106;2022-11-20T02:12:15;2.00;99.90
15819;DHT22;8010;53.986;12.106;2022-11-20T02:14:59;2.00;99.90
15819;DHT22;8010;53.986;12.106;2022-11-20T02:17:25;2.00;99.90
15819;DHT22;8010;53.986;12.106;2022-11-20T02:19:51;2.00;99.90
15819;DHT22;8010;53.986;12.106;2022-11-20T02:22:33;2.00;99.90
15819;DHT22;8010;53.986;12.106;2022-11-20T02:25:02;2.00;99.90
15819;DHT22;8010;53.986;12.106;2022-11-20T02:27:29;2.00;99.90
15819;DHT22;8010;53.986;12.106;2022-11-20T02:30:00;1.90;99.90
15819;DHT22;8010;53.986;12.106;2022-11-20T02:32:32;1.90;99.90
15819;DHT22;8010;53.986;12.106;2022-11-20T02:37:43;1.90;99.90
15819;DHT22;8010;53.986;12.106;2022-11-20T02:40:10;1.90;99.90
15819;DHT22;8010;53.986;12.106;2022-11-20T02:42:36;1.90;99.90
15819;DHT22;8010;53.986;12.106;2022-11-20T02:45:04;1.90;99.90
15819;DHT22;8010;53.986;12.106;2022-11-20T02:47:30;1.90;99.90
15819;DHT22;8010;53.986;12.106;2022-11-20T02:49:56;1.90;99.90
15819;DHT22;8010;53.986;12.106;2022-11-20T02:52:22;1.90;99.90
15819;DHT22;8010;53.986;12.106;2022-11-20T02:54:47;1.90;99.90
15819;DHT22;8010;53.986;12.106;2022-11-20T02:57:13;1.90;99.90
15819;DHT22;8010;53.986;12.106;2022-11-20T02:59:38;1.80;99.90
15819;DHT22;8010;53.986;12.106;2022-11-20T03:02:04;1.80;99.90
15819;DHT22;8010;53.986;12.106;2022-11-20T03:04:30;1.80;99.90
15819;DHT22;8010;53.986;12.106;2022-11-20T03:06:56;1.80;99.90
15819;DHT22;8010;53.986;12.106;2022-11-20T03:09:21;1.80;99.90
15819;DHT22;8010;53.986;12.106;2022-11-20T03:11:47;1.80;99.90
15819;DHT22;8010;53.986;12.106;2022-11-20T03:14:12;1.80;99.90
15819;DHT22;8010;53.986;12.106;2022-11-20T03:16:38;1.80;99.90
15819;DHT22;8010;53.986;12.106;2022-11-20T03:19:04;1.80;99.90
15819;DHT22;8010;53.986;12.106;2022-11-20T03:21:29;1.80;99.90
15819;DHT22;8010;53.986;12.106;2022-11-20T03:23:55;1.80;99.90
15819;DHT22;8010;53.986;12.106;2022-11-20T03:26:23;1.80;99.90
15819;DHT22;8010;53.986;12.106;2022-11-20T03:28:54;1.80;99.90
15819;DHT22;8010;53.986;12.106;2022-11-20T03:31:22;1.80;99.90
15819;DHT22;8010;53.986;12.106;2022-11-20T03:33:48;1.80;99.90
15819;DHT22;8010;53.986;12.106;2022-11-20T03:36:16;1.80;99.90
15819;DHT22;8010;53.986;12.106;2022-11-20T03:38:42;1.80;99.90
15819;DHT22;8010;53.986;12.106;2022-11-20T03:41:13;1.80;99.90
15819;DHT22;8010;53.986;12.106;2022-11-20T03:43:38;1.80;99.90
15819;DHT22;8010;53.986;12.106;2022-11-20T03:46:05;1.80;99.90
15819;DHT22;8010;53.986;12.106;2022-11-20T03:48:31;1.80;99.90
15819;DHT22;8010;53.986;12.106;2022-11-20T03:51:15;1.80;99.90
15819;DHT22;8010;53.986;12.106;2022-11-20T03:53:42;1.80;99.90
15819;DHT22;8010;53.986;12.106;2022-11-20T03:56:09;1.80;99.90
15819;DHT22;8010;53.986;12.106;2022-11-20T03:58:36;1.80;99.90
15819;DHT22;8010;53.986;12.106;2022-11-20T04:01:11;1.80;99.90
15819;DHT22;8010;53.986;12.106;2022-11-20T04:03:38;1.80;99.90
15819;DHT22;8010;53.986;12.106;2022-11-20T04:06:07;1.80;99.90
15819;DHT22;8010;53.986;12.106;2022-11-20T04:08:33;1.80;99.90
15819;DHT22;8010;53.986;12.106;2022-11-20T04:13:39;1.80;99.90
15819;DHT22;8010;53.986;12.106;2022-11-20T04:16:08;1.80;99.90
15819;DHT22;8010;53.986;12.106;2022-11-20T04:18:34;1.80;99.90
15819;DHT22;8010;53.986;12.106;2022-11-20T04:21:00;1.80;99.90
15819;DHT22;8010;53.986;12.106;2022-11-20T04:23:26;0.90;99.90
15819;DHT22;8010;53.986;12.106;2022-11-20T04:25:52;1.70;99.90
15819;DHT22;8010;53.986;12.106;2022-11-20T04:28:18;1.70;99.90
15819;DHT22;8010;53.986;12.106;2022-11-20T04:30:44;1.70;99.90
15819;DHT22;8010;53.986;12.106;2022-11-20T04:33:09;1.70;99.90
15819;DHT22;8010;53.986;12.106;2022-11-20T04:35:36;1.70;99.90
15819;DHT22;8010;53.986;12.106;2022-11-20T04:38:01;1.70;99.90
15819;DHT22;8010;53.986;12.106;2022-11-20T04:40:30;1.70;99.90
15819;DHT22;8010;53.986;12.106;2022-11-20T04:42:56;1.60;99.90
15819;DHT22;8010;53.986;12.106;2022-11-20T04:45:23;1.70;99.90
15819;DHT22;8010;53.986;12.106;2022-11-20T04:47:48;1.60;99.90
15819;DHT22;8010;53.986;12.106;2022-11-20T04:50:14;1.60;99.90
15819;DHT22;8010;53.986;12.106;2022-11-20T04:52:40;1.60;99.90
15819;DHT22;8010;53.986;12.106;2022-11-20T04:55:06;1.60;99.90
15819;DHT22;8010;53.986;12.106;2022-11-20T04:57:31;1.70;99.90
15819;DHT22;8010;53.986;12.106;2022-11-20T04:59:57;1.70;99.90
15819;DHT22;8010;53.986;12.106;2022-11-20T05:02:22;1.60;99.90
15819;DHT22;8010;53.986;12.106;2022-11-20T05:04:48;1.60;99.90
15819;DHT22;8010;53.986;12.106;2022-11-20T05:07:14;1.70;99.90
15819;DHT22;8010;53.986;12.106;2022-11-20T05:09:39;1.70;99.90
15819;DHT22;8010;53.986;12.106;2022-11-20T05:12:07;1.70;99.90
15819;DHT22;8010;53.986;12.106;2022-11-20T05:14:33;1.70;99.90
15819;DHT22;8010;53.986;12.106;2022-11-20T05:16:59;1.70;99.90
15819;DHT22;8010;53.986;12.106;2022-11-20T05:19:25;1.70;99.90
15819;DHT22;8010;53.986;12.106;2022-11-20T05:21:50;1.70;99.90
15819;DHT22;8010;53.986;12.106;2022-11-20T05:24:16;1.70;99.90
15819;DHT22;8010;53.986;12.106;2022-11-20T05:26:41;1.70;99.90
15819;DHT22;8010;53.986;12.106;2022-11-20T05:29:10;1.70;99.90
15819;DHT22;8010;53.986;12.106;2022-11-20T05:31:36;1.80;99.90
15819;DHT22;8010;53.986;12.106;2022-11-20T05:34:02;1.80;99.90
15819;DHT22;8010;53.986;12.106;2022-11-20T05:36:28;1.80;99.90
15819;DHT22;8010;53.986;12.106;2022-11-20T05:38:53;1.80;99.90
15819;DHT22;8010;53.986;12.106;2022-11-20T05:41:20;1.80;99.90
15819;DHT22;8010;53.986;12.106;2022-11-20T05:43:46;1.80;99.90
15819;DHT22;8010;53.986;12.106;2022-11-20T05:46:14;1.80;99.90
15819;DHT22;8010;53.986;12.106;2022-11-20T05:48:41;1.80;99.90
15819;DHT22;8010;53.986;12.106;2022-11-20T05:51:09;1.80;99.90
15819;DHT22;8010;53.986;12.106;2022-11-20T05:53:35;1.80;99.90
15819;DHT22;8010;53.986;12.106;2022-11-20T05:56:06;1.80;99.90
15819;DHT22;8010;53.986;12.106;2022-11-20T05:58:32;1.80;99.90
15819;DHT22;8010;53.986;12.106;2022-11-20T06:01:22;1.80;99.90
15819;DHT22;8010;53.986;12.106;2022-11-20T06:03:49;1.80;99.90
15819;DHT22;8010;53.986;12.106;2022-11-20T06:06:16;1.70;99.90
15819;DHT22;8010;53.986;12.106;2022-11-20T06:08:42;1.80;99.90
15819;DHT22;8010;53.986;12.106;2022-11-20T06:11:10;1.80;99.90
15819;DHT22;8010;53.986;12.106;2022-11-20T06:13:37;1.80;99.90
15819;DHT22;8010;53.986;12.106;2022-11-20T06:16:03;1.80;99.90
15819;DHT22;8010;53.986;12.106;2022-11-20T06:18:30;1.80;99.90
15819;DHT22;8010;53.986;12.106;2022-11-20T06:21:04;1.70;99.90
15819;DHT22;8010;53.986;12.106;2022-11-20T06:23:31;1.80;99.90
15819;DHT22;8010;53.986;12.106;2022-11-20T06:26:00;1.70;99.90
15819;DHT22;8010;53.986;12.106;2022-11-20T06:28:26;1.70;99.90
15819;DHT22;8010;53.986;12.106;2022-11-20T06:30:51;1.70;99.90
15819;DHT22;8010;53.986;12.106;2022-11-20T06:33:17;1.70;99.90
15819;DHT22;8010;53.986;12.106;2022-11-20T06:35:43;1.60;99.90
15819;DHT22;8010;53.986;12.106;2022-11-20T06:38:08;1.60;99.90
15819;DHT22;8010;53.986;12.106;2022-11-20T06:40:34;1.60;99.90
15819;DHT22;8010;53.986;12.106;2022-11-20T06:42:59;1.60;99.90
15819;DHT22;8010;53.986;12.106;2022-11-20T06:45:25;1.50;99.90
15819;DHT22;8010;53.986;12.106;2022-11-20T06:47:50;1.50;99.90
15819;DHT22;8010;53.986;12.106;2022-11-20T06:50:16;1.60;99.90
15819;DHT22;8010;53.986;12.106;2022-11-20T06:52:41;1.60;99.90
15819;DHT22;8010;53.986;12.106;2022-11-20T06:55:07;1.50;99.90
15819;DHT22;8010;53.986;12.106;2022-11-20T06:57:33;1.50;99.90
15819;DHT22;8010;53.986;12.106;2022-11-20T06:59:58;1.50;99.90
15819;DHT22;8010;53.986;12.106;2022-11-20T07:02:24;1.50;99.90
15819;DHT22;8010;53.986;12.106;2022-11-20T07:04:49;1.50;99.90
15819;DHT22;8010;53.986;12.106;2022-11-20T07:07:15;1.50;99.90
15819;DHT22;8010;53.986;12.106;2022-11-20T07:09:40;1.50;99.90
15819;DHT22;8010;53.986;12.106;2022-11-20T07:12:06;1.60;99.90
15819;DHT22;8010;53.986;12.106;2022-11-20T07:14:31;1.50;99.90
15819;DHT22;8010;53.986;12.106;2022-11-20T07:16:57;1.50;99.90
15819;DHT22;8010;53.986;12.106;2022-11-20T07:19:22;1.60;99.90
15819;DHT22;8010;53.986;12.106;2022-11-20T07:21:48;1.60;99.90
15819;DHT22;8010;53.986;12.106;2022-11-20T07:24:13;1.70;99.90
15819;DHT22;8010;53.986;12.106;2022-11-20T07:26:39;1.70;99.90
15819;DHT22;8010;53.986;12.106;2022-11-20T07:29:04;1.70;99.90
15819;DHT22;8010;53.986;12.106;2022-11-20T07:31:30;1.70;99.90
15819;DHT22;8010;53.986;12.106;2022-11-20T07:33:56;1.70;99.90
15819;DHT22;8010;53.986;12.106;2022-11-20T07:36:21;1.70;99.90
15819;DHT22;8010;53.986;12.106;2022-11-20T07:38:47;1.70;99.90
15819;DHT22;8010;53.986;12.106;2022-11-20T07:41:12;1.80;99.90
15819;DHT22;8010;53.986;12.106;2022-11-20T07:43:38;1.80;99.90
15819;DHT22;8010;53.986;12.106;2022-11-20T07:46:03;1.80;99.90
15819;DHT22;8010;53.986;12.106;2022-11-20T07:48:29;1.80;99.90
15819;DHT22;8010;53.986;12.106;2022-11-20T07:50:58;1.80;99.90
15819;DHT22;8010;53.986;12.106;2022-11-20T07:53:24;1.80;99.90
15819;DHT22;8010;53.986;12.106;2022-11-20T07:55:49;1.80;99.90
15819;DHT22;8010;53.986;12.106;2022-11-20T07:58:18;1.90;99.90
15819;DHT22;8010;53.986;12.106;2022-11-20T08:00:44;1.90;99.90
15819;DHT22;8010;53.986;12.106;2022-11-20T08:03:09;1.90;99.90
15819;DHT22;8010;53.986;12.106;2022-11-20T08:05:35;1.90;99.90
15819;DHT22;8010;53.986;12.106;2022-11-20T08:08:01;1.90;99.90
15819;DHT22;8010;53.986;12.106;2022-11-20T08:10:26;2.00;99.90
15819;DHT22;8010;53.986;12.106;2022-11-20T08:12:52;2.00;99.90
15819;DHT22;8010;53.986;12.106;2022-11-20T08:15:38;2.00;99.90
15819;DHT22;8010;53.986;12.106;2022-11-20T08:18:06;2.00;99.90
15819;DHT22;8010;53.986;12.106;2022-11-20T08:20:33;2.10;99.90
15819;DHT22;8010;53.986;12.106;2022-11-20T08:23:00;2.10;99.90
15819;DHT22;8010;53.986;12.106;2022-11-20T08:25:27;2.10;99.90
15819;DHT22;8010;53.986;12.106;2022-11-20T08:27:53;2.10;99.90
15819;DHT22;8010;53.986;12.106;2022-11-20T08:30:18;2.20;99.90
15819;DHT22;8010;53.986;12.106;2022-11-20T08:32:44;2.20;99.90
15819;DHT22;8010;53.986;12.106;2022-11-20T08:35:09;2.20;99.90
15819;DHT22;8010;53.986;12.106;2022-11-20T08:37:35;2.20;99.90
15819;DHT22;8010;53.986;12.106;2022-11-20T08:40:03;2.20;99.90
15819;DHT22;8010;53.986;12.106;2022-11-20T08:42:28;2.20;99.90
15819;DHT22;8010;53.986;12.106;2022-11-20T08:44:54;2.20;99.90
15819;DHT22;8010;53.986;12.106;2022-11-20T08:47:19;2.20;99.90
15819;DHT22;8010;53.986;12.106;2022-11-20T08:49:45;2.20;99.90
15819;DHT22;8010;53.986;12.106;2022-11-20T08:52:10;2.20;99.90
15819;DHT22;8010;53.986;12.106;2022-11-20T08:54:36;2.50;99.90
15819;DHT22;8010;53.986;12.106;2022-11-20T08:57:01;2.40;99.90
15819;DHT22;8010;53.986;12.106;2022-11-20T08:59:27;2.50;99.90
15819;DHT22;8010;53.986;12.106;2022-11-20T09:01:52;2.50;99.90
15819;DHT22;8010;53.986;12.106;2022-11-20T09:04:18;2.50;99.90
15819;DHT22;8010;53.986;12.106;2022-11-20T09:06:43;2.60;99.90
15819;DHT22;8010;53.986;12.106;2022-11-20T09:09:09;2.60;99.90
15819;DHT22;8010;53.986;12.106;2022-11-20T09:11:35;2.60;99.90
15819;DHT22;8010;53.986;12.106;2022-11-20T09:14:01;2.70;99.90
15819;DHT22;8010;53.986;12.106;2022-11-20T09:16:28;2.70;99.90
15819;DHT22;8010;53.986;12.106;2022-11-20T09:18:53;2.70;99.90
15819;DHT22;8010;53.986;12.106;2022-11-20T09:21:19;2.80;99.90
15819;DHT22;8010;53.986;12.106;2022-11-20T09:23:44;2.90;99.90
15819;DHT22;8010;53.986;12.106;2022-11-20T09:26:12;2.90;99.90
15819;DHT22;8010;53.986;12.106;2022-11-20T09:28:38;2.90;99.90
15819;DHT22;8010;53.986;12.106;2022-11-20T09:31:09;2.90;99.90
15819;DHT22;8010;53.986;12.106;2022-11-20T09:33:35;2.90;99.90
15819;DHT22;8010;53.986;12.106;2022-11-20T09:36:01;2.80;99.90
15819;DHT22;8010;53.986;12.106;2022-11-20T09:38:26;2.80;99.90
15819;DHT22;8010;53.986;12.106;2022-11-20T09:43:39;2.90;99.90
15819;DHT22;8010;53.986;12.106;2022-11-20T09:46:45;2.90;99.90
15819;DHT22;8010;53.986;12.106;2022-11-20T09:49:28;2.90;99.90
15819;DHT22;8010;53.986;12.106;2022-11-20T09:52:32;2.90;99.90
15819;DHT22;8010;53.986;12.106;2022-11-20T09:55:03;3.00;99.90
15819;DHT22;8010;53.986;12.106;2022-11-20T09:57:37;3.00;99.90
15819;DHT22;8010;53.986;12.106;2022-11-20T10:00:05;3.00;99.90
15819;DHT22;8010;53.986;12.106;2022-11-20T10:10:42;3.20;99.90
15819;DHT22;8010;53.986;12.106;2022-11-20T10:13:23;3.20;99.90
15819;DHT22;8010;53.986;12.106;2022-11-20T10:24:47;3.30;99.90
15819;DHT22;8010;53.986;12.106;2022-11-20T10:27:40;3.30;99.90
15819;DHT22;8010;53.986;12.106;2022-11-20T10:30:14;3.20;99.90
15819;DHT22;8010;53.986;12.106;2022-11-20T10:32:47;3.20;99.90
15819;DHT22;8010;53.986;12.106;2022-11-20T10:37:44;3.20;99.90
15819;DHT22;8010;53.986;12.106;2022-11-20T10:40:31;3.20;99.90
15819;DHT22;8010;53.986;12.106;2022-11-20T10:43:02;3.20;99.90
15819;DHT22;8010;53.986;12.106;2022-11-20T10:45:53;3.20;99.90
15819;DHT22;8010;53.986;12.106;2022-11-20T10:48:23;3.30;99.90
15819;DHT22;8010;53.986;12.106;2022-11-20T10:51:21;3.40;99.90
15819;DHT22;8010;53.986;12.106;2022-11-20T10:54:22;3.50;99.90
15819;DHT22;8010;53.986;12.106;2022-11-20T10:56:53;3.60;99.90
15819;DHT22;8010;53.986;12.106;2022-11-20T10:59:39;3.60;99.90
15819;DHT22;8010;53.986;12.106;2022-11-20T11:02:24;3.50;99.90
15819;DHT22;8010;53.986;12.106;2022-11-20T11:04:56;3.60;99.90
15819;DHT22;8010;53.986;12.106;2022-11-20T11:09:53;3.50;99.90
15819;DHT22;8010;53.986;12.106;2022-11-20T11:12:21;3.60;99.90
15819;DHT22;8010;53.986;12.106;2022-11-20T11:14:48;3.60;99.90
15819;DHT22;8010;53.986;12.106;2022-11-20T11:17:31;3.50;99.90
15819;DHT22;8010;53.986;12.106;2022-11-20T11:20:18;3.50;99.90
15819;DHT22;8010;53.986;12.106;2022-11-20T11:22:48;3.50;99.90
15819;DHT22;8010;53.986;12.106;2022-11-20T11:25:31;3.40;99.90
15819;DHT22;8010;53.986;12.106;2022-11-20T11:30:44;3.20;99.90
15819;DHT22;8010;53.986;12.106;2022-11-20T11:33:18;3.10;99.90
15819;DHT22;8010;53.986;12.106;2022-11-20T11:35:47;3.00;99.90
15819;DHT22;8010;53.986;12.106;2022-11-20T11:38:16;2.90;99.90
15819;DHT22;8010;53.986;12.106;2022-11-20T11:40:43;2.90;99.90
15819;DHT22;8010;53.986;12.106;2022-11-20T11:43:24;3.10;99.90
15819;DHT22;8010;53.986;12.106;2022-11-20T11:46:31;3.20;99.90
15819;DHT22;8010;53.986;12.106;2022-11-20T11:49:14;3.60;99.90
15819;DHT22;8010;53.986;12.106;2022-11-20T11:57:04;3.80;99.90
15819;DHT22;8010;53.986;12.106;2022-11-20T12:00:08;3.70;99.90
15819;DHT22;8010;53.986;12.106;2022-11-20T12:07:55;3.30;99.90
15819;DHT22;8010;53.986;12.106;2022-11-20T12:13:25;3.20;99.90
15819;DHT22;8010;53.986;12.106;2022-11-20T12:15:53;3.10;99.90
15819;DHT22;8010;53.986;12.106;2022-11-20T12:18:20;3.10;99.90
15819;DHT22;8010;53.986;12.106;2022-11-20T12:21:16;3.10;99.90
15819;DHT22;8010;53.986;12.106;2022-11-20T12:24:14;3.10;99.90
15819;DHT22;8010;53.986;12.106;2022-11-20T12:29:47;3.10;99.90
15819;DHT22;8010;53.986;12.106;2022-11-20T12:32:42;3.10;99.90
15819;DHT22;8010;53.986;12.106;2022-11-20T12:38:19;3.20;99.90
15819;DHT22;8010;53.986;12.106;2022-11-20T12:43:58;3.40;99.90
15819;DHT22;8010;53.986;12.106;2022-11-20T12:47:03;3.40;99.90
15819;DHT22;8010;53.986;12.106;2022-11-20T12:49:37;3.50;99.90
15819;DHT22;8010;53.986;12.106;2022-11-20T13:00:20;3.30;99.90
15819;DHT22;8010;53.986;12.106;2022-11-20T13:03:06;3.20;99.90
15819;DHT22;8010;53.986;12.106;2022-11-20T13:05:52;3.20;99.90
15819;DHT22;8010;53.986;12.106;2022-11-20T13:08:27;3.30;99.90
15819;DHT22;8010;53.986;12.106;2022-11-20T13:11:15;3.40;99.90
15819;DHT22;8010;53.986;12.106;2022-11-20T13:16:38;3.60;99.90
15819;DHT22;8010;53.986;12.106;2022-11-20T13:19:13;3.60;99.90
15819;DHT22;8010;53.986;12.106;2022-11-20T13:21:42;3.70;99.90
15819;DHT22;8010;53.986;12.106;2022-11-20T13:29:36;4.00;99.90
15819;DHT22;8010;53.986;12.106;2022-11-20T13:32:13;3.90;99.90
15819;DHT22;8010;53.986;12.106;2022-11-20T13:34:39;3.90;99.90
15819;DHT22;8010;53.986;12.106;2022-11-20T13:37:26;3.90;99.90
15819;DHT22;8010;53.986;12.106;2022-11-20T13:39:52;3.70;99.90
15819;DHT22;8010;53.986;12.106;2022-11-20T13:44:53;3.60;99.90
15819;DHT22;8010;53.986;12.106;2022-11-20T13:47:28;3.50;99.90
15819;DHT22;8010;53.986;12.106;2022-11-20T13:49:58;3.50;99.90
15819;DHT22;8010;53.986;12.106;2022-11-20T14:00:28;3.40;99.90
15819;DHT22;8010;53.986;12.106;2022-11-20T14:05:34;3.40;99.90
15819;DHT22;8010;53.986;12.106;2022-11-20T14:08:03;3.40;99.90
15819;DHT22;8010;53.986;12.106;2022-11-20T14:10:31;4.10;99.90
15819;DHT22;8010;53.986;12.106;2022-11-20T14:12:56;3.40;99.90
15819;DHT22;8010;53.986;12.106;2022-11-20T14:15:25;3.40;99.90
15819;DHT22;8010;53.986;12.106;2022-11-20T14:17:51;3.30;99.90
15819;DHT22;8010;53.986;12.106;2022-11-20T14:20:17;3.20;99.90
15819;DHT22;8010;53.986;12.106;2022-11-20T14:22:49;3.10;99.90
15819;DHT22;8010;53.986;12.106;2022-11-20T14:27:43;3.00;99.90
15819;DHT22;8010;53.986;12.106;2022-11-20T14:30:24;2.90;99.90
15819;DHT22;8010;53.986;12.106;2022-11-20T14:32:53;2.90;99.90
15819;DHT22;8010;53.986;12.106;2022-11-20T14:35:31;2.80;99.90
15819;DHT22;8010;53.986;12.106;2022-11-20T14:38:00;2.80;99.90
15819;DHT22;8010;53.986;12.106;2022-11-20T14:40:32;2.80;99.90
15819;DHT22;8010;53.986;12.106;2022-11-20T14:43:01;2.70;99.90
15819;DHT22;8010;53.986;12.106;2022-11-20T14:45:27;2.70;99.90
15819;DHT22;8010;53.986;12.106;2022-11-20T14:47:55;2.70;99.90
15819;DHT22;8010;53.986;12.106;2022-11-20T14:50:27;2.70;99.90
15819;DHT22;8010;53.986;12.106;2022-11-20T14:52:59;2.70;99.90
15819;DHT22;8010;53.986;12.106;2022-11-20T14:55:33;2.70;99.90
15819;DHT22;8010;53.986;12.106;2022-11-20T14:58:05;2.70;99.90
15819;DHT22;8010;53.986;12.106;2022-11-20T15:00:33;2.70;99.90
15819;DHT22;8010;53.986;12.106;2022-11-20T15:02:59;2.70;99.90
15819;DHT22;8010;53.986;12.106;2022-11-20T15:05:46;2.80;99.90
15819;DHT22;8010;53.986;12.106;2022-11-20T15:08:13;2.80;99.90
15819;DHT22;8010;53.986;12.106;2022-11-20T15:10:39;2.80;99.90
15819;DHT22;8010;53.986;12.106;2022-11-20T15:13:37;2.80;99.90
15819;DHT22;8010;53.986;12.106;2022-11-20T15:16:02;2.70;99.90
15819;DHT22;8010;53.986;12.106;2022-11-20T15:18:36;2.70;99.90
15819;DHT22;8010;53.986;12.106;2022-11-20T15:21:10;2.70;99.90
15819;DHT22;8010;53.986;12.106;2022-11-20T15:23:36;2.70;99.90
15819;DHT22;8010;53.986;12.106;2022-11-20T15:26:05;2.60;99.90
15819;DHT22;8010;53.986;12.106;2022-11-20T15:28:41;2.60;99.90
15819;DHT22;8010;53.986;12.106;2022-11-20T15:31:11;2.60;99.90
15819;DHT22;8010;53.986;12.106;2022-11-20T15:33:37;2.60;99.90
15819;DHT22;8010;53.986;12.106;2022-11-20T15:36:04;2.60;99.90
15819;DHT22;8010;53.986;12.106;2022-11-20T15:38:29;2.50;99.90
15819;DHT22;8010;53.986;12.106;2022-11-20T15:40:55;2.50;99.90
15819;DHT22;8010;53.986;12.106;2022-11-20T15:43:21;2.50;99.90
15819;DHT22;8010;53.986;12.106;2022-11-20T15:45:56;2.50;99.90
15819;DHT22;8010;53.986;12.106;2022-11-20T15:48:29;2.40;99.90
15819;DHT22;8010;53.986;12.106;2022-11-20T15:53:38;2.30;99.90
15819;DHT22;8010;53.986;12.106;2022-11-20T15:56:12;2.30;99.90
15819;DHT22;8010;53.986;12.106;2022-11-20T15:58:38;2.20;99.90
15819;DHT22;8010;53.986;12.106;2022-11-20T16:01:04;2.10;99.90
15819;DHT22;8010;53.986;12.106;2022-11-20T16:03:29;2.10;99.90
15819;DHT22;8010;53.986;12.106;2022-11-20T16:05:55;2.00;99.90
15819;DHT22;8010;53.986;12.106;2022-11-20T16:08:21;2.00;99.90
15819;DHT22;8010;53.986;12.106;2022-11-20T16:10:46;1.90;99.90
15819;DHT22;8010;53.986;12.106;2022-11-20T16:13:13;1.80;99.90
15819;DHT22;8010;53.986;12.106;2022-11-20T16:15:59;1.80;99.90
15819;DHT22;8010;53.986;12.106;2022-11-20T16:18:26;1.70;99.90
15819;DHT22;8010;53.986;12.106;2022-11-20T16:20:53;1.70;99.90
15819;DHT22;8010;53.986;12.106;2022-11-20T16:23:19;1.70;99.90
15819;DHT22;8010;53.986;12.106;2022-11-20T16:25:46;1.60;99.90
15819;DHT22;8010;53.986;12.106;2022-11-20T16:28:12;1.60;99.90
15819;DHT22;8010;53.986;12.106;2022-11-20T16:30:38;1.50;99.90
15819;DHT22;8010;53.986;12.106;2022-11-20T16:33:08;1.40;99.90
15819;DHT22;8010;53.986;12.106;2022-11-20T16:35:34;1.30;99.90
15819;DHT22;8010;53.986;12.106;2022-11-20T16:38:00;1.20;99.90
15819;DHT22;8010;53.986;12.106;2022-11-20T16:40:25;1.20;99.90
15819;DHT22;8010;53.986;12.106;2022-11-20T16:42:51;1.20;99.90
15819;DHT22;8010;53.986;12.106;2022-11-20T16:45:17;1.10;99.90
15819;DHT22;8010;53.986;12.106;2022-11-20T16:47:43;1.00;99.90
15819;DHT22;8010;53.986;12.106;2022-11-20T16:50:09;1.00;99.90
15819;DHT22;8010;53.986;12.106;2022-11-20T16:52:35;1.00;99.90
15819;DHT22;8010;53.986;12.106;2022-11-20T16:55:01;1.00;99.90
15819;DHT22;8010;53.986;12.106;2022-11-20T16:57:28;1.00;99.90
15819;DHT22;8010;53.986;12.106;2022-11-20T16:59:54;1.00;99.90
15819;DHT22;8010;53.986;12.106;2022-11-20T17:02:20;1.10;99.90
15819;DHT22;8010;53.986;12.106;2022-11-20T17:04:45;1.10;99.90
15819;DHT22;8010;53.986;12.106;2022-11-20T17:07:11;1.10;99.90
15819;DHT22;8010;53.986;12.106;2022-11-20T17:09:37;1.20;99.90
15819;DHT22;8010;53.986;12.106;2022-11-20T17:12:03;1.20;99.90
15819;DHT22;8010;53.986;12.106;2022-11-20T17:14:29;1.20;99.90
15819;DHT22;8010;53.986;12.106;2022-11-20T17:16:54;1.20;99.90
15819;DHT22;8010;53.986;12.106;2022-11-20T17:19:20;1.20;99.90
15819;DHT22;8010;53.986;12.106;2022-11-20T17:21:45;1.20;99.90
15819;DHT22;8010;53.986;12.106;2022-11-20T17:24:12;1.20;99.90
15819;DHT22;8010;53.986;12.106;2022-11-20T17:26:41;1.20;99.90
15819;DHT22;8010;53.986;12.106;2022-11-20T17:29:10;1.20;99.90